sensor_id;sensor_type;location;lat;lon;timestamp;P1;durP1;ratioP1;P2;durP2;ratioP2
36233;SDS011;43467;50.890;5.982;2024-02-21T00:00:07;29.83;;;11.00;;
36233;SDS011;43467;50.890;5.982;2024-02-21T00:02:34;31.45;;;11.38;;
36233;SDS011;43467;50.890;5.982;2024-02-21T00:05:00;32.92;;;11.35;;
36233;SDS011;43467;50.890;5.982;2024-02-21T00:07:25;21.83;;;10.88;;
36233;SDS011;43467;50.890;5.982;2024-02-21T00:09:50;29.30;;;11.75;;
36233;SDS011;43467;50.890;5.982;2024-02-21T00:12:16;20.30;;;9.93;;
36233;SDS011;43467;50.890;5.982;2024-02-21T00:14:41;31.02;;;11.32;;
36233;SDS011;43467;50.890;5.982;2024-02-21T00:17:07;30.08;;;11.05;;
36233;SDS011;43467;50.890;5.982;2024-02-21T00:19:33;23.70;;;10.43;;
36233;SDS011;43467;50.890;5.982;2024-02-21T00:21:59;25.17;;;10.13;;
36233;SDS011;43467;50.890;5.982;2024-02-21T00:24:24;27.45;;;10.05;;
36233;SDS011;43467;50.890;5.982;2024-02-21T00:26:50;30.80;;;10.98;;
36233;SDS011;43467;50.890;5.982;2024-02-21T00:29:15;26.30;;;10.30;;
36233;SDS011;43467;50.890;5.982;2024-02-21T00:31:40;27.80;;;10.40;;
36233;SDS011;43467;50.890;5.982;2024-02-21T00:34:06;23.08;;;10.30;;
36233;SDS011;43467;50.890;5.982;2024-02-21T00:36:32;27.65;;;10.75;;
36233;SDS011;43467;50.890;5.982;2024-02-21T00:38:58;25.65;;;11.27;;
36233;SDS011;43467;50.890;5.982;2024-02-21T00:41:23;25.98;;;11.02;;
36233;SDS011;43467;50.890;5.982;2024-02-21T00:43:49;26.25;;;11.68;;
36233;SDS011;43467;50.890;5.982;2024-02-21T00:46:15;26.67;;;10.65;;
36233;SDS011;43467;50.890;5.982;2024-02-21T00:48:40;25.00;;;11.82;;
36233;SDS011;43467;50.890;5.982;2024-02-21T00:51:06;21.55;;;10.50;;
36233;SDS011;43467;50.890;5.982;2024-02-21T00:53:31;24.55;;;11.50;;
36233;SDS011;43467;50.890;5.982;2024-02-21T00:55:56;30.25;;;10.90;;
36233;SDS011;43467;50.890;5.982;2024-02-21T00:58:22;24.00;;;10.45;;
36233;SDS011;43467;50.890;5.982;2024-02-21T01:00:47;33.22;;;12.50;;
36233;SDS011;43467;50.890;5.982;2024-02-21T01:03:13;26.15;;;10.50;;
36233;SDS011;43467;50.890;5.982;2024-02-21T01:05:38;30.70;;;11.30;;
36233;SDS011;43467;50.890;5.982;2024-02-21T01:08:04;28.52;;;11.70;;
36233;SDS011;43467;50.890;5.982;2024-02-21T01:10:30;26.27;;;11.55;;
36233;SDS011;43467;50.890;5.982;2024-02-21T01:12:55;25.70;;;11.32;;
36233;SDS011;43467;50.890;5.982;2024-02-21T01:15:20;25.23;;;11.63;;
36233;SDS011;43467;50.890;5.982;2024-02-21T01:17:46;24.95;;;10.77;;
36233;SDS011;43467;50.890;5.982;2024-02-21T01:20:11;30.45;;;11.95;;
36233;SDS011;43467;50.890;5.982;2024-02-21T01:22:37;28.13;;;11.25;;
36233;SDS011;43467;50.890;5.982;2024-02-21T01:25:02;25.42;;;11.93;;
36233;SDS011;43467;50.890;5.982;2024-02-21T01:27:28;28.40;;;11.57;;
36233;SDS011;43467;50.890;5.982;2024-02-21T01:29:54;24.25;;;10.35;;
36233;SDS011;43467;50.890;5.982;2024-02-21T01:32:19;30.50;;;10.98;;
36233;SDS011;43467;50.890;5.982;2024-02-21T01:34:44;20.42;;;10.85;;
36233;SDS011;43467;50.890;5.982;2024-02-21T01:37:10;26.60;;;11.43;;
36233;SDS011;43467;50.890;5.982;2024-02-21T01:39:35;25.35;;;11.85;;
36233;SDS011;43467;50.890;5.982;2024-02-21T01:42:00;27.67;;;11.40;;
36233;SDS011;43467;50.890;5.982;2024-02-21T01:44:26;30.55;;;12.20;;
36233;SDS011;43467;50.890;5.982;2024-02-21T01:46:52;27.98;;;11.25;;
36233;SDS011;43467;50.890;5.982;2024-02-21T01:49:18;29.05;;;11.05;;
36233;SDS011;43467;50.890;5.982;2024-02-21T01:51:45;26.65;;;10.43;;
36233;SDS011;43467;50.890;5.982;2024-02-21T01:54:10;26.30;;;9.90;;
36233;SDS011;43467;50.890;5.982;2024-02-21T01:56:42;27.58;;;10.85;;
36233;SDS011;43467;50.890;5.982;2024-02-21T01:59:09;25.15;;;10.55;;
36233;SDS011;43467;50.890;5.982;2024-02-21T02:01:35;26.60;;;9.93;;
36233;SDS011;43467;50.890;5.982;2024-02-21T02:04:00;26.80;;;10.48;;
36233;SDS011;43467;50.890;5.982;2024-02-21T02:06:26;23.05;;;9.88;;
36233;SDS011;43467;50.890;5.982;2024-02-21T02:08:51;26.45;;;10.20;;
36233;SDS011;43467;50.890;5.982;2024-02-21T02:11:17;25.40;;;9.73;;
36233;SDS011;43467;50.890;5.982;2024-02-21T02:13:43;26.67;;;10.27;;
36233;SDS011;43467;50.890;5.982;2024-02-21T02:16:09;19.50;;;9.35;;
36233;SDS011;43467;50.890;5.982;2024-02-21T02:18:34;24.10;;;10.68;;
36233;SDS011;43467;50.890;5.982;2024-02-21T02:21:00;28.45;;;9.73;;
36233;SDS011;43467;50.890;5.982;2024-02-21T02:25:54;24.40;;;10.27;;
36233;SDS011;43467;50.890;5.982;2024-02-21T02:28:19;22.63;;;8.95;;
36233;SDS011;43467;50.890;5.982;2024-02-21T02:30:45;27.00;;;10.55;;
36233;SDS011;43467;50.890;5.982;2024-02-21T02:33:11;22.63;;;9.20;;
36233;SDS011;43467;50.890;5.982;2024-02-21T02:35:37;28.98;;;9.85;;
36233;SDS011;43467;50.890;5.982;2024-02-21T02:38:02;21.25;;;9.02;;
36233;SDS011;43467;50.890;5.982;2024-02-21T02:40:28;25.00;;;9.63;;
36233;SDS011;43467;50.890;5.982;2024-02-21T02:42:54;25.15;;;9.25;;
36233;SDS011;43467;50.890;5.982;2024-02-21T02:45:22;20.48;;;8.50;;
36233;SDS011;43467;50.890;5.982;2024-02-21T02:47:49;27.20;;;9.15;;
36233;SDS011;43467;50.890;5.982;2024-02-21T02:50:14;22.83;;;9.32;;
36233;SDS011;43467;50.890;5.982;2024-02-21T02:52:40;23.08;;;9.20;;
36233;SDS011;43467;50.890;5.982;2024-02-21T02:55:05;26.00;;;10.18;;
36233;SDS011;43467;50.890;5.982;2024-02-21T02:57:31;28.52;;;9.70;;
36233;SDS011;43467;50.890;5.982;2024-02-21T02:59:57;22.25;;;9.30;;
36233;SDS011;43467;50.890;5.982;2024-02-21T03:02:22;24.55;;;9.23;;
36233;SDS011;43467;50.890;5.982;2024-02-21T03:04:48;28.20;;;9.85;;
36233;SDS011;43467;50.890;5.982;2024-02-21T03:07:14;22.98;;;8.80;;
36233;SDS011;43467;50.890;5.982;2024-02-21T03:09:40;24.00;;;8.85;;
36233;SDS011;43467;50.890;5.982;2024-02-21T03:12:07;18.63;;;9.40;;
36233;SDS011;43467;50.890;5.982;2024-02-21T03:14:33;22.38;;;9.35;;
36233;SDS011;43467;50.890;5.982;2024-02-21T03:16:58;20.45;;;9.27;;
36233;SDS011;43467;50.890;5.982;2024-02-21T03:19:24;25.15;;;9.82;;
36233;SDS011;43467;50.890;5.982;2024-02-21T03:21:50;20.20;;;8.82;;
36233;SDS011;43467;50.890;5.982;2024-02-21T03:24:16;22.85;;;9.82;;
36233;SDS011;43467;50.890;5.982;2024-02-21T03:26:41;20.50;;;8.95;;
36233;SDS011;43467;50.890;5.982;2024-02-21T03:29:07;25.65;;;9.93;;
36233;SDS011;43467;50.890;5.982;2024-02-21T03:31:33;32.65;;;9.93;;
36233;SDS011;43467;50.890;5.982;2024-02-21T03:33:59;16.38;;;8.70;;
36233;SDS011;43467;50.890;5.982;2024-02-21T03:36:25;29.23;;;9.95;;
36233;SDS011;43467;50.890;5.982;2024-02-21T03:38:50;28.42;;;10.25;;
36233;SDS011;43467;50.890;5.982;2024-02-21T03:41:15;20.67;;;8.55;;
36233;SDS011;43467;50.890;5.982;2024-02-21T03:43:41;19.33;;;8.52;;
36233;SDS011;43467;50.890;5.982;2024-02-21T03:46:06;25.48;;;9.13;;
36233;SDS011;43467;50.890;5.982;2024-02-21T03:48:32;25.35;;;9.70;;
36233;SDS011;43467;50.890;5.982;2024-02-21T03:50:57;19.00;;;9.27;;
36233;SDS011;43467;50.890;5.982;2024-02-21T03:53:23;20.83;;;9.05;;
36233;SDS011;43467;50.890;5.982;2024-02-21T03:55:48;21.40;;;10.60;;
36233;SDS011;43467;50.890;5.982;2024-02-21T03:58:14;23.67;;;8.98;;
36233;SDS011;43467;50.890;5.982;2024-02-21T04:00:39;20.67;;;9.43;;
36233;SDS011;43467;50.890;5.982;2024-02-21T04:03:04;26.35;;;9.23;;
36233;SDS011;43467;50.890;5.982;2024-02-21T04:05:31;19.13;;;9.50;;
36233;SDS011;43467;50.890;5.982;2024-02-21T04:07:57;24.55;;;10.23;;
36233;SDS011;43467;50.890;5.982;2024-02-21T04:10:22;23.25;;;9.15;;
36233;SDS011;43467;50.890;5.982;2024-02-21T04:12:47;18.38;;;8.82;;
36233;SDS011;43467;50.890;5.982;2024-02-21T04:15:15;26.60;;;9.57;;
36233;SDS011;43467;50.890;5.982;2024-02-21T04:17:41;21.15;;;8.80;;
36233;SDS011;43467;50.890;5.982;2024-02-21T04:20:13;22.83;;;8.13;;
36233;SDS011;43467;50.890;5.982;2024-02-21T04:22:40;20.95;;;8.52;;
36233;SDS011;43467;50.890;5.982;2024-02-21T04:25:05;19.08;;;9.45;;
36233;SDS011;43467;50.890;5.982;2024-02-21T04:27:31;22.52;;;9.60;;
36233;SDS011;43467;50.890;5.982;2024-02-21T04:29:57;24.80;;;8.88;;
36233;SDS011;43467;50.890;5.982;2024-02-21T04:32:22;19.50;;;8.98;;
36233;SDS011;43467;50.890;5.982;2024-02-21T04:34:48;21.10;;;7.95;;
36233;SDS011;43467;50.890;5.982;2024-02-21T04:37:13;22.17;;;8.38;;
36233;SDS011;43467;50.890;5.982;2024-02-21T04:39:39;19.48;;;8.27;;
36233;SDS011;43467;50.890;5.982;2024-02-21T04:42:04;17.88;;;8.20;;
36233;SDS011;43467;50.890;5.982;2024-02-21T04:44:30;18.88;;;7.40;;
36233;SDS011;43467;50.890;5.982;2024-02-21T04:46:55;13.95;;;7.43;;
36233;SDS011;43467;50.890;5.982;2024-02-21T04:49:20;14.73;;;7.78;;
36233;SDS011;43467;50.890;5.982;2024-02-21T04:51:46;21.83;;;8.68;;
36233;SDS011;43467;50.890;5.982;2024-02-21T04:54:11;27.58;;;8.52;;
36233;SDS011;43467;50.890;5.982;2024-02-21T04:56:36;20.55;;;7.63;;
36233;SDS011;43467;50.890;5.982;2024-02-21T04:59:02;21.17;;;7.65;;
36233;SDS011;43467;50.890;5.982;2024-02-21T05:01:28;21.73;;;9.32;;
36233;SDS011;43467;50.890;5.982;2024-02-21T05:03:53;17.73;;;7.60;;
36233;SDS011;43467;50.890;5.982;2024-02-21T05:06:19;17.05;;;8.13;;
36233;SDS011;43467;50.890;5.982;2024-02-21T05:08:44;20.23;;;6.93;;
36233;SDS011;43467;50.890;5.982;2024-02-21T05:11:09;20.48;;;7.35;;
36233;SDS011;43467;50.890;5.982;2024-02-21T05:13:35;21.98;;;7.55;;
36233;SDS011;43467;50.890;5.982;2024-02-21T05:16:00;20.27;;;7.30;;
36233;SDS011;43467;50.890;5.982;2024-02-21T05:18:27;19.35;;;7.03;;
36233;SDS011;43467;50.890;5.982;2024-02-21T05:20:53;14.40;;;6.43;;
36233;SDS011;43467;50.890;5.982;2024-02-21T05:23:18;15.80;;;6.97;;
36233;SDS011;43467;50.890;5.982;2024-02-21T05:25:44;18.27;;;6.57;;
36233;SDS011;43467;50.890;5.982;2024-02-21T05:28:09;14.32;;;7.28;;
36233;SDS011;43467;50.890;5.982;2024-02-21T05:30:34;16.05;;;7.03;;
36233;SDS011;43467;50.890;5.982;2024-02-21T05:33:03;15.88;;;6.88;;
36233;SDS011;43467;50.890;5.982;2024-02-21T05:35:30;14.35;;;7.00;;
36233;SDS011;43467;50.890;5.982;2024-02-21T05:37:55;20.17;;;7.53;;
36233;SDS011;43467;50.890;5.982;2024-02-21T05:40:22;14.80;;;6.88;;
36233;SDS011;43467;50.890;5.982;2024-02-21T05:42:48;24.20;;;7.05;;
36233;SDS011;43467;50.890;5.982;2024-02-21T05:45:13;17.98;;;6.93;;
36233;SDS011;43467;50.890;5.982;2024-02-21T05:47:40;22.08;;;7.88;;
36233;SDS011;43467;50.890;5.982;2024-02-21T05:50:06;18.85;;;6.75;;
36233;SDS011;43467;50.890;5.982;2024-02-21T05:52:32;16.80;;;7.57;;
36233;SDS011;43467;50.890;5.982;2024-02-21T05:54:57;23.40;;;7.38;;
36233;SDS011;43467;50.890;5.982;2024-02-21T05:57:22;20.00;;;7.63;;
36233;SDS011;43467;50.890;5.982;2024-02-21T05:59:48;14.75;;;6.97;;
36233;SDS011;43467;50.890;5.982;2024-02-21T06:02:13;21.80;;;8.18;;
36233;SDS011;43467;50.890;5.982;2024-02-21T06:04:39;18.65;;;7.70;;
36233;SDS011;43467;50.890;5.982;2024-02-21T06:07:04;18.63;;;7.32;;
36233;SDS011;43467;50.890;5.982;2024-02-21T06:09:30;18.92;;;6.93;;
36233;SDS011;43467;50.890;5.982;2024-02-21T06:11:55;26.88;;;8.20;;
36233;SDS011;43467;50.890;5.982;2024-02-21T06:14:20;20.08;;;8.07;;
36233;SDS011;43467;50.890;5.982;2024-02-21T06:16:46;18.73;;;7.22;;
36233;SDS011;43467;50.890;5.982;2024-02-21T06:19:11;21.85;;;7.57;;
36233;SDS011;43467;50.890;5.982;2024-02-21T06:21:36;17.00;;;6.45;;
36233;SDS011;43467;50.890;5.982;2024-02-21T06:24:02;17.95;;;7.63;;
36233;SDS011;43467;50.890;5.982;2024-02-21T06:26:29;20.15;;;6.97;;
36233;SDS011;43467;50.890;5.982;2024-02-21T06:28:54;17.50;;;6.65;;
36233;SDS011;43467;50.890;5.982;2024-02-21T06:31:19;19.13;;;7.50;;
36233;SDS011;43467;50.890;5.982;2024-02-21T06:33:45;21.63;;;7.18;;
36233;SDS011;43467;50.890;5.982;2024-02-21T06:36:10;15.55;;;6.47;;
36233;SDS011;43467;50.890;5.982;2024-02-21T06:38:36;12.60;;;6.00;;
36233;SDS011;43467;50.890;5.982;2024-02-21T06:41:01;13.55;;;6.30;;
36233;SDS011;43467;50.890;5.982;2024-02-21T06:43:27;16.23;;;5.97;;
36233;SDS011;43467;50.890;5.982;2024-02-21T06:45:53;25.88;;;6.55;;
36233;SDS011;43467;50.890;5.982;2024-02-21T06:48:20;19.58;;;5.95;;
36233;SDS011;43467;50.890;5.982;2024-02-21T06:50:45;16.38;;;5.55;;
36233;SDS011;43467;50.890;5.982;2024-02-21T06:53:11;21.33;;;7.57;;
36233;SDS011;43467;50.890;5.982;2024-02-21T06:55:37;16.50;;;6.15;;
36233;SDS011;43467;50.890;5.982;2024-02-21T06:58:02;15.63;;;6.10;;
36233;SDS011;43467;50.890;5.982;2024-02-21T07:00:28;15.15;;;6.57;;
36233;SDS011;43467;50.890;5.982;2024-02-21T07:02:54;13.63;;;6.50;;
36233;SDS011;43467;50.890;5.982;2024-02-21T07:05:20;17.92;;;6.22;;
36233;SDS011;43467;50.890;5.982;2024-02-21T07:07:45;12.98;;;5.55;;
36233;SDS011;43467;50.890;5.982;2024-02-21T07:10:11;21.23;;;6.53;;
36233;SDS011;43467;50.890;5.982;2024-02-21T07:12:36;16.65;;;6.57;;
36233;SDS011;43467;50.890;5.982;2024-02-21T07:15:04;17.33;;;6.50;;
36233;SDS011;43467;50.890;5.982;2024-02-21T07:17:30;17.02;;;6.57;;
36233;SDS011;43467;50.890;5.982;2024-02-21T07:19:55;17.35;;;6.75;;
36233;SDS011;43467;50.890;5.982;2024-02-21T07:22:24;17.27;;;6.35;;
36233;SDS011;43467;50.890;5.982;2024-02-21T07:24:50;19.48;;;6.22;;
36233;SDS011;43467;50.890;5.982;2024-02-21T07:27:15;14.68;;;7.15;;
36233;SDS011;43467;50.890;5.982;2024-02-21T07:29:41;15.63;;;6.15;;
36233;SDS011;43467;50.890;5.982;2024-02-21T07:32:06;16.67;;;6.75;;
36233;SDS011;43467;50.890;5.982;2024-02-21T07:34:32;12.13;;;6.10;;
36233;SDS011;43467;50.890;5.982;2024-02-21T07:36:57;11.55;;;5.47;;
36233;SDS011;43467;50.890;5.982;2024-02-21T07:39:23;19.92;;;6.18;;
36233;SDS011;43467;50.890;5.982;2024-02-21T07:41:48;17.15;;;6.13;;
36233;SDS011;43467;50.890;5.982;2024-02-21T07:44:14;16.42;;;6.45;;
36233;SDS011;43467;50.890;5.982;2024-02-21T07:46:40;18.60;;;6.60;;
36233;SDS011;43467;50.890;5.982;2024-02-21T07:49:06;13.45;;;5.55;;
36233;SDS011;43467;50.890;5.982;2024-02-21T07:51:31;16.30;;;6.72;;
36233;SDS011;43467;50.890;5.982;2024-02-21T07:53:57;18.20;;;6.55;;
36233;SDS011;43467;50.890;5.982;2024-02-21T07:56:22;14.02;;;6.32;;
36233;SDS011;43467;50.890;5.982;2024-02-21T07:58:47;11.35;;;5.95;;
36233;SDS011;43467;50.890;5.982;2024-02-21T08:01:18;14.10;;;6.10;;
36233;SDS011;43467;50.890;5.982;2024-02-21T08:03:47;13.13;;;6.15;;
36233;SDS011;43467;50.890;5.982;2024-02-21T08:06:13;16.63;;;6.28;;
36233;SDS011;43467;50.890;5.982;2024-02-21T08:08:39;16.15;;;6.30;;
36233;SDS011;43467;50.890;5.982;2024-02-21T08:11:04;14.82;;;5.50;;
36233;SDS011;43467;50.890;5.982;2024-02-21T08:13:30;14.00;;;5.32;;
36233;SDS011;43467;50.890;5.982;2024-02-21T08:15:56;17.77;;;6.05;;
36233;SDS011;43467;50.890;5.982;2024-02-21T08:18:22;11.35;;;5.18;;
36233;SDS011;43467;50.890;5.982;2024-02-21T08:20:48;13.23;;;5.00;;
36233;SDS011;43467;50.890;5.982;2024-02-21T08:23:15;16.77;;;5.35;;
36233;SDS011;43467;50.890;5.982;2024-02-21T08:25:42;15.23;;;5.53;;
36233;SDS011;43467;50.890;5.982;2024-02-21T08:28:07;13.68;;;6.32;;
36233;SDS011;43467;50.890;5.982;2024-02-21T08:30:33;12.65;;;4.90;;
36233;SDS011;43467;50.890;5.982;2024-02-21T08:32:59;11.10;;;5.03;;
36233;SDS011;43467;50.890;5.982;2024-02-21T08:35:25;13.90;;;4.53;;
36233;SDS011;43467;50.890;5.982;2024-02-21T08:37:50;13.43;;;4.80;;
36233;SDS011;43467;50.890;5.982;2024-02-21T08:40:16;16.35;;;5.05;;
36233;SDS011;43467;50.890;5.982;2024-02-21T08:42:46;11.25;;;4.43;;
36233;SDS011;43467;50.890;5.982;2024-02-21T08:45:11;14.60;;;4.55;;
36233;SDS011;43467;50.890;5.982;2024-02-21T08:47:40;12.18;;;4.55;;
36233;SDS011;43467;50.890;5.982;2024-02-21T08:50:06;12.00;;;4.43;;
36233;SDS011;43467;50.890;5.982;2024-02-21T08:52:32;10.88;;;4.45;;
36233;SDS011;43467;50.890;5.982;2024-02-21T08:54:57;12.40;;;4.53;;
36233;SDS011;43467;50.890;5.982;2024-02-21T08:57:23;8.82;;;4.32;;
36233;SDS011;43467;50.890;5.982;2024-02-21T08:59:48;16.38;;;5.13;;
36233;SDS011;43467;50.890;5.982;2024-02-21T09:02:14;10.98;;;4.35;;
36233;SDS011;43467;50.890;5.982;2024-02-21T09:04:41;11.35;;;5.03;;
36233;SDS011;43467;50.890;5.982;2024-02-21T09:07:06;13.32;;;4.68;;
36233;SDS011;43467;50.890;5.982;2024-02-21T09:09:32;9.43;;;4.38;;
36233;SDS011;43467;50.890;5.982;2024-02-21T09:11:58;11.10;;;4.28;;
36233;SDS011;43467;50.890;5.982;2024-02-21T09:14:30;13.38;;;4.15;;
36233;SDS011;43467;50.890;5.982;2024-02-21T09:16:56;10.63;;;4.30;;
36233;SDS011;43467;50.890;5.982;2024-02-21T09:19:21;9.02;;;4.05;;
36233;SDS011;43467;50.890;5.982;2024-02-21T09:21:47;10.88;;;4.47;;
36233;SDS011;43467;50.890;5.982;2024-02-21T09:24:12;13.15;;;4.40;;
36233;SDS011;43467;50.890;5.982;2024-02-21T09:26:38;12.55;;;5.03;;
36233;SDS011;43467;50.890;5.982;2024-02-21T09:29:04;8.45;;;4.35;;
36233;SDS011;43467;50.890;5.982;2024-02-21T09:31:29;11.38;;;4.57;;
36233;SDS011;43467;50.890;5.982;2024-02-21T09:33:54;11.93;;;4.57;;
36233;SDS011;43467;50.890;5.982;2024-02-21T09:36:20;12.95;;;5.07;;
36233;SDS011;43467;50.890;5.982;2024-02-21T09:38:46;10.98;;;4.57;;
36233;SDS011;43467;50.890;5.982;2024-02-21T09:41:15;10.23;;;4.75;;
36233;SDS011;43467;50.890;5.982;2024-02-21T09:43:44;18.10;;;5.63;;
36233;SDS011;43467;50.890;5.982;2024-02-21T09:46:15;10.93;;;4.75;;
36233;SDS011;43467;50.890;5.982;2024-02-21T09:51:19;25.52;;;5.78;;
36233;SDS011;43467;50.890;5.982;2024-02-21T09:53:46;11.05;;;4.40;;
36233;SDS011;43467;50.890;5.982;2024-02-21T09:56:13;8.52;;;4.63;;
36233;SDS011;43467;50.890;5.982;2024-02-21T09:58:39;10.63;;;4.45;;
36233;SDS011;43467;50.890;5.982;2024-02-21T10:01:06;11.80;;;5.03;;
36233;SDS011;43467;50.890;5.982;2024-02-21T10:03:31;12.88;;;4.57;;
36233;SDS011;43467;50.890;5.982;2024-02-21T10:05:58;9.52;;;4.90;;
36233;SDS011;43467;50.890;5.982;2024-02-21T10:08:25;12.60;;;5.05;;
36233;SDS011;43467;50.890;5.982;2024-02-21T10:10:51;10.85;;;4.72;;
36233;SDS011;43467;50.890;5.982;2024-02-21T10:18:31;10.32;;;4.72;;
36233;SDS011;43467;50.890;5.982;2024-02-21T10:21:04;15.40;;;5.75;;
36233;SDS011;43467;50.890;5.982;2024-02-21T10:23:41;14.07;;;4.90;;
36233;SDS011;43467;50.890;5.982;2024-02-21T10:26:07;15.52;;;5.65;;
36233;SDS011;43467;50.890;5.982;2024-02-21T10:28:32;14.55;;;4.88;;
36233;SDS011;43467;50.890;5.982;2024-02-21T10:30:58;11.93;;;4.95;;
36233;SDS011;43467;50.890;5.982;2024-02-21T10:33:23;13.65;;;5.13;;
36233;SDS011;43467;50.890;5.982;2024-02-21T10:35:50;12.32;;;5.43;;
36233;SDS011;43467;50.890;5.982;2024-02-21T10:38:16;13.55;;;5.75;;
36233;SDS011;43467;50.890;5.982;2024-02-21T10:40:41;13.57;;;5.97;;
36233;SDS011;43467;50.890;5.982;2024-02-21T10:43:10;15.40;;;5.53;;
36233;SDS011;43467;50.890;5.982;2024-02-21T10:45:39;17.52;;;6.35;;
36233;SDS011;43467;50.890;5.982;2024-02-21T10:48:14;18.73;;;5.93;;
36233;SDS011;43467;50.890;5.982;2024-02-21T10:56:50;15.73;;;6.45;;
36233;SDS011;43467;50.890;5.982;2024-02-21T10:59:16;13.65;;;5.40;;
36233;SDS011;43467;50.890;5.982;2024-02-21T11:01:43;12.45;;;6.13;;
36233;SDS011;43467;50.890;5.982;2024-02-21T11:04:08;14.52;;;5.75;;
36233;SDS011;43467;50.890;5.982;2024-02-21T11:06:37;15.35;;;5.85;;
36233;SDS011;43467;50.890;5.982;2024-02-21T11:09:08;14.88;;;6.00;;
36233;SDS011;43467;50.890;5.982;2024-02-21T11:11:42;15.23;;;5.68;;
36233;SDS011;43467;50.890;5.982;2024-02-21T11:16:44;12.00;;;5.38;;
36233;SDS011;43467;50.890;5.982;2024-02-21T11:21:47;10.88;;;4.57;;
36233;SDS011;43467;50.890;5.982;2024-02-21T11:24:13;11.45;;;5.13;;
36233;SDS011;43467;50.890;5.982;2024-02-21T11:26:39;10.10;;;5.63;;
36233;SDS011;43467;50.890;5.982;2024-02-21T11:29:07;11.50;;;4.88;;
36233;SDS011;43467;50.890;5.982;2024-02-21T11:31:41;11.57;;;5.13;;
36233;SDS011;43467;50.890;5.982;2024-02-21T11:34:11;12.90;;;5.15;;
36233;SDS011;43467;50.890;5.982;2024-02-21T11:36:46;13.43;;;5.00;;
36233;SDS011;43467;50.890;5.982;2024-02-21T11:39:17;15.30;;;5.25;;
36233;SDS011;43467;50.890;5.982;2024-02-21T11:42:08;10.55;;;5.45;;
36233;SDS011;43467;50.890;5.982;2024-02-21T11:44:34;12.57;;;5.57;;
36233;SDS011;43467;50.890;5.982;2024-02-21T11:47:00;14.88;;;5.78;;
36233;SDS011;43467;50.890;5.982;2024-02-21T11:49:28;13.65;;;5.30;;
36233;SDS011;43467;50.890;5.982;2024-02-21T11:51:58;14.52;;;5.53;;
36233;SDS011;43467;50.890;5.982;2024-02-21T11:54:29;10.73;;;5.23;;
36233;SDS011;43467;50.890;5.982;2024-02-21T11:56:58;17.77;;;5.35;;
36233;SDS011;43467;50.890;5.982;2024-02-21T11:59:24;11.10;;;5.10;;
36233;SDS011;43467;50.890;5.982;2024-02-21T12:01:49;16.67;;;6.38;;
36233;SDS011;43467;50.890;5.982;2024-02-21T12:04:17;11.70;;;5.20;;
36233;SDS011;43467;50.890;5.982;2024-02-21T12:06:47;14.70;;;6.47;;
36233;SDS011;43467;50.890;5.982;2024-02-21T12:09:15;14.00;;;5.47;;
36233;SDS011;43467;50.890;5.982;2024-02-21T12:11:41;12.55;;;5.57;;
36233;SDS011;43467;50.890;5.982;2024-02-21T12:14:08;11.70;;;6.18;;
36233;SDS011;43467;50.890;5.982;2024-02-21T12:16:34;14.73;;;5.20;;
36233;SDS011;43467;50.890;5.982;2024-02-21T12:19:03;10.75;;;5.50;;
36233;SDS011;43467;50.890;5.982;2024-02-21T12:21:32;14.07;;;5.53;;
36233;SDS011;43467;50.890;5.982;2024-02-21T12:24:12;16.50;;;5.95;;
36233;SDS011;43467;50.890;5.982;2024-02-21T12:26:39;10.32;;;5.22;;
36233;SDS011;43467;50.890;5.982;2024-02-21T12:29:04;11.27;;;5.80;;
36233;SDS011;43467;50.890;5.982;2024-02-21T12:31:30;15.00;;;5.38;;
36233;SDS011;43467;50.890;5.982;2024-02-21T12:33:55;13.60;;;5.78;;
36233;SDS011;43467;50.890;5.982;2024-02-21T12:36:21;10.88;;;5.47;;
36233;SDS011;43467;50.890;5.982;2024-02-21T12:38:46;12.82;;;5.03;;
36233;SDS011;43467;50.890;5.982;2024-02-21T12:41:13;10.57;;;4.70;;
36233;SDS011;43467;50.890;5.982;2024-02-21T12:43:39;11.90;;;5.50;;
36233;SDS011;43467;50.890;5.982;2024-02-21T12:46:05;11.60;;;4.95;;
36233;SDS011;43467;50.890;5.982;2024-02-21T12:48:32;11.40;;;5.47;;
36233;SDS011;43467;50.890;5.982;2024-02-21T12:50:58;9.75;;;4.57;;
36233;SDS011;43467;50.890;5.982;2024-02-21T12:53:23;12.90;;;4.57;;
36233;SDS011;43467;50.890;5.982;2024-02-21T12:55:49;9.95;;;4.32;;
36233;SDS011;43467;50.890;5.982;2024-02-21T12:58:15;9.27;;;4.10;;
36233;SDS011;43467;50.890;5.982;2024-02-21T13:00:41;11.68;;;4.55;;
36233;SDS011;43467;50.890;5.982;2024-02-21T13:03:07;10.98;;;5.15;;
36233;SDS011;43467;50.890;5.982;2024-02-21T13:05:34;9.52;;;4.55;;
36233;SDS011;43467;50.890;5.982;2024-02-21T13:08:00;12.52;;;5.38;;
36233;SDS011;43467;50.890;5.982;2024-02-21T13:10:26;10.40;;;4.80;;
36233;SDS011;43467;50.890;5.982;2024-02-21T13:12:52;9.43;;;4.78;;
36233;SDS011;43467;50.890;5.982;2024-02-21T13:15:17;9.52;;;4.00;;
36233;SDS011;43467;50.890;5.982;2024-02-21T13:17:45;13.63;;;4.10;;
36233;SDS011;43467;50.890;5.982;2024-02-21T13:20:11;12.32;;;5.05;;
36233;SDS011;43467;50.890;5.982;2024-02-21T13:22:37;9.07;;;4.55;;
36233;SDS011;43467;50.890;5.982;2024-02-21T13:25:03;9.32;;;4.43;;
36233;SDS011;43467;50.890;5.982;2024-02-21T13:27:29;11.93;;;5.38;;
36233;SDS011;43467;50.890;5.982;2024-02-21T13:29:55;13.98;;;4.45;;
36233;SDS011;43467;50.890;5.982;2024-02-21T13:32:20;9.10;;;4.00;;
36233;SDS011;43467;50.890;5.982;2024-02-21T13:34:46;10.00;;;4.43;;
36233;SDS011;43467;50.890;5.982;2024-02-21T13:37:11;7.88;;;3.85;;
36233;SDS011;43467;50.890;5.982;2024-02-21T13:39:38;9.10;;;3.92;;
36233;SDS011;43467;50.890;5.982;2024-02-21T13:42:03;7.25;;;4.40;;
36233;SDS011;43467;50.890;5.982;2024-02-21T13:44:31;8.02;;;3.38;;
36233;SDS011;43467;50.890;5.982;2024-02-21T13:46:57;8.25;;;3.42;;
36233;SDS011;43467;50.890;5.982;2024-02-21T13:49:22;11.00;;;4.13;;
36233;SDS011;43467;50.890;5.982;2024-02-21T13:51:47;10.25;;;3.70;;
36233;SDS011;43467;50.890;5.982;2024-02-21T13:54:13;7.95;;;3.83;;
36233;SDS011;43467;50.890;5.982;2024-02-21T13:56:42;12.27;;;3.88;;
36233;SDS011;43467;50.890;5.982;2024-02-21T13:59:08;11.95;;;5.25;;
36233;SDS011;43467;50.890;5.982;2024-02-21T14:01:33;10.68;;;3.75;;
36233;SDS011;43467;50.890;5.982;2024-02-21T14:04:00;9.63;;;4.10;;
36233;SDS011;43467;50.890;5.982;2024-02-21T14:06:26;8.57;;;3.55;;
36233;SDS011;43467;50.890;5.982;2024-02-21T14:08:51;9.18;;;3.67;;
36233;SDS011;43467;50.890;5.982;2024-02-21T14:11:17;10.75;;;4.03;;
36233;SDS011;43467;50.890;5.982;2024-02-21T14:13:42;11.13;;;4.25;;
36233;SDS011;43467;50.890;5.982;2024-02-21T14:16:10;9.90;;;4.60;;
36233;SDS011;43467;50.890;5.982;2024-02-21T14:18:39;7.70;;;4.03;;
36233;SDS011;43467;50.890;5.982;2024-02-21T14:21:08;7.38;;;3.35;;
36233;SDS011;43467;50.890;5.982;2024-02-21T14:23:37;9.20;;;3.67;;
36233;SDS011;43467;50.890;5.982;2024-02-21T14:26:06;11.27;;;3.53;;
36233;SDS011;43467;50.890;5.982;2024-02-21T14:28:31;12.32;;;4.95;;
36233;SDS011;43467;50.890;5.982;2024-02-21T14:30:59;11.68;;;3.70;;
36233;SDS011;43467;50.890;5.982;2024-02-21T14:33:25;11.90;;;3.65;;
36233;SDS011;43467;50.890;5.982;2024-02-21T14:35:52;11.88;;;4.25;;
36233;SDS011;43467;50.890;5.982;2024-02-21T14:38:17;9.45;;;3.72;;
36233;SDS011;43467;50.890;5.982;2024-02-21T14:40:44;9.50;;;3.42;;
36233;SDS011;43467;50.890;5.982;2024-02-21T14:43:09;10.88;;;3.80;;
36233;SDS011;43467;50.890;5.982;2024-02-21T14:45:35;6.25;;;3.42;;
36233;SDS011;43467;50.890;5.982;2024-02-21T14:48:00;7.70;;;3.38;;